createdAt,value
2024-04-22T00:01:46.051Z,101751.19
2024-04-22T00:04:57.021Z,101751.88
2024-04-22T00:07:29.293Z,101748.59
2024-04-22T00:10:03.796Z,101744.59
2024-04-22T00:12:33.312Z,101743.53
2024-04-22T00:15:00.493Z,101745.63
2024-04-22T00:17:28.055Z,101737.81
2024-04-22T00:19:55.668Z,101735.09
2024-04-22T00:22:22.967Z,101725.38
2024-04-22T00:24:53.339Z,101727.75
2024-04-22T00:27:20.729Z,101725.81
2024-04-22T00:29:48.378Z,101723.66
2024-04-22T00:32:15.654Z,101723.06
2024-04-22T00:34:42.990Z,101722.63
2024-04-22T00:37:10.141Z,101716.28
2024-04-22T00:39:37.674Z,101719.63
2024-04-22T00:42:05.277Z,101723.25
2024-04-22T00:44:33.466Z,101725.25
2024-04-22T00:47:00.485Z,101725.84
2024-04-22T00:49:30.051Z,101736.22
2024-04-22T00:51:57.433Z,101726.06
2024-04-22T00:54:24.868Z,101730.13
2024-04-22T00:56:53.097Z,101724.44
2024-04-22T00:59:21.058Z,101734.22
2024-04-22T01:01:48.654Z,101733.63
2024-04-22T01:04:15.832Z,101723.72
2024-04-22T01:06:43.400Z,101731.03
2024-04-22T01:09:10.178Z,101727.22
2024-04-22T01:11:37.816Z,101715.50
2024-04-22T01:14:05.529Z,101713.88
2024-04-22T01:16:33.295Z,101713.88
2024-04-22T01:19:00.666Z,101720.38
2024-04-22T01:21:30.796Z,101724.03
2024-04-22T01:23:57.979Z,101724.28
2024-04-22T01:26:26.589Z,101711.00
2024-04-22T01:28:53.844Z,101718.81
2024-04-22T01:31:21.619Z,101718.81
2024-04-22T01:33:49.093Z,101718.78
2024-04-22T01:36:15.983Z,101715.72
2024-04-22T01:38:43.535Z,101706.28
2024-04-22T01:41:10.439Z,101711.75
2024-04-22T01:43:41.373Z,101719.56
2024-04-22T01:46:09.159Z,101716.22
2024-04-22T01:48:36.819Z,101709.16
2024-04-22T01:51:03.862Z,101715.28
2024-04-22T01:53:31.298Z,101715.28
2024-04-22T01:55:58.785Z,101713.59
2024-04-22T01:58:26.407Z,101704.72
2024-04-22T02:00:53.639Z,101704.13
2024-04-22T02:03:21.428Z,101711.03
2024-04-22T02:05:49.111Z,101701.75
2024-04-22T02:08:16.026Z,101701.16
2024-04-22T02:10:43.645Z,101702.88
2024-04-22T02:13:10.874Z,101700.91
2024-04-22T02:15:38.318Z,101692.66
2024-04-22T02:18:07.000Z,101701.09
2024-04-22T02:20:34.455Z,101693.41
2024-04-22T02:23:02.237Z,101704.75
2024-04-22T02:25:29.742Z,101697.84
2024-04-22T02:27:57.036Z,101692.41
2024-04-22T02:30:24.876Z,101697.84
2024-04-22T02:32:52.534Z,101701.59
2024-04-22T02:35:19.487Z,101699.59
2024-04-22T02:37:46.931Z,101706.28
2024-04-22T02:40:14.080Z,101702.19
2024-04-22T02:42:41.366Z,101696.72
2024-04-22T02:45:10.145Z,101685.47
2024-04-22T02:47:37.841Z,101691.19
2024-04-22T02:50:06.293Z,101687.28
2024-04-22T02:52:33.977Z,101687.06
2024-04-22T02:55:01.160Z,101694.75
2024-04-22T02:57:28.399Z,101693.56
2024-04-22T02:59:55.727Z,101694.72
2024-04-22T03:02:22.755Z,101693.09
2024-04-22T03:04:50.700Z,101695.38
2024-04-22T03:07:18.015Z,101690.00
2024-04-22T03:09:46.063Z,101691.38
2024-04-22T03:12:16.518Z,101679.63
2024-04-22T03:14:44.052Z,101691.88
2024-04-22T03:17:10.934Z,101680.03
2024-04-22T03:19:38.452Z,101674.69
2024-04-22T03:22:05.537Z,101682.25
2024-04-22T03:24:32.470Z,101679.78
2024-04-22T03:26:59.954Z,101671.75
2024-04-22T03:29:26.810Z,101669.03
2024-04-22T03:31:54.511Z,101676.09
2024-04-22T03:34:21.390Z,101673.38
2024-04-22T03:36:48.638Z,101668.94
2024-04-22T03:39:16.291Z,101680.59
2024-04-22T03:41:43.350Z,101666.84
2024-04-22T03:44:13.922Z,101670.56
2024-04-22T03:46:59.463Z,101663.75
2024-04-22T03:49:45.307Z,101664.50
2024-04-22T03:52:12.705Z,101667.69
2024-04-22T03:54:39.958Z,101673.50
2024-04-22T03:57:07.270Z,101670.19
2024-04-22T03:59:34.444Z,101670.69
2024-04-22T04:02:01.401Z,101672.03
2024-04-22T04:04:28.679Z,101670.03
2024-04-22T04:06:55.644Z,101673.59
2024-04-22T04:09:24.371Z,101666.41
2024-04-22T04:11:52.422Z,101664.59
2024-04-22T04:14:20.504Z,101665.38
2024-04-22T04:16:47.510Z,101673.44
2024-04-22T04:19:15.159Z,101675.16
2024-04-22T04:21:42.861Z,101671.94
2024-04-22T04:24:09.976Z,101674.28
2024-04-22T04:26:37.250Z,101673.44
2024-04-22T04:29:06.463Z,101670.19
2024-04-22T04:31:33.988Z,101670.94
2024-04-22T04:34:00.809Z,101664.63
2024-04-22T04:36:27.979Z,101670.19
2024-04-22T04:38:55.246Z,101677.13
2024-04-22T04:41:24.771Z,101671.78
2024-04-22T04:43:51.880Z,101669.19
2024-04-22T04:46:19.797Z,101669.19
2024-04-22T04:48:47.007Z,101662.63
2024-04-22T04:51:13.797Z,101665.13
2024-04-22T04:53:40.856Z,101674.53
2024-04-22T04:56:08.178Z,101675.16
2024-04-22T04:58:35.518Z,101673.53
2024-04-22T05:01:02.408Z,101673.69
2024-04-22T05:03:29.175Z,101673.56
2024-04-22T05:06:03.812Z,101680.59
2024-04-22T05:08:31.477Z,101675.41
2024-04-22T05:11:03.833Z,101677.63
2024-04-22T05:13:31.432Z,101680.88
2024-04-22T05:15:58.174Z,101688.50
2024-04-22T05:18:24.919Z,101680.84
2024-04-22T05:20:53.033Z,101676.63
2024-04-22T05:23:20.104Z,101681.78
2024-04-22T05:25:47.662Z,101677.44
2024-04-22T05:28:16.643Z,101669.69
2024-04-22T05:30:43.571Z,101663.88
2024-04-22T05:33:30.734Z,101677.97
2024-04-22T05:36:13.963Z,101666.22
2024-04-22T05:38:44.481Z,101671.03
2024-04-22T05:41:12.643Z,101673.16
2024-04-22T05:43:39.732Z,101672.81
2024-04-22T05:46:25.763Z,101681.88
2024-04-22T05:48:53.374Z,101677.09
2024-04-22T05:51:20.174Z,101683.94
2024-04-22T05:53:47.344Z,101676.19
2024-04-22T05:56:14.168Z,101677.91
2024-04-22T05:58:40.979Z,101672.94
2024-04-22T06:01:07.781Z,101676.84
2024-04-22T06:03:35.108Z,101668.44
2024-04-22T06:06:01.953Z,101667.91
2024-04-22T06:08:29.121Z,101663.56
2024-04-22T06:10:56.377Z,101662.72
2024-04-22T06:13:23.233Z,101662.59
2024-04-22T06:15:50.434Z,101662.50
2024-04-22T06:18:20.405Z,101668.44
2024-04-22T06:20:47.399Z,101667.38
2024-04-22T06:23:15.031Z,101664.97
2024-04-22T06:25:49.362Z,101665.44
2024-04-22T06:28:16.847Z,101664.19
2024-04-22T06:30:45.887Z,101667.34
2024-04-22T06:33:12.652Z,101665.75
2024-04-22T06:35:39.804Z,101670.63
2024-04-22T06:38:09.183Z,101660.19
2024-04-22T06:40:37.959Z,101657.44
2024-04-22T06:43:07.097Z,101659.47
2024-04-22T06:45:33.939Z,101656.50
2024-04-22T06:48:00.876Z,101653.19
2024-04-22T06:50:28.038Z,101655.50
2024-04-22T06:52:54.844Z,101659.00
2024-04-22T06:55:25.474Z,101652.13
2024-04-22T06:57:53.035Z,101651.41
2024-04-22T07:00:22.019Z,101651.13
2024-04-22T07:02:49.790Z,101653.13
2024-04-22T07:05:16.790Z,101654.09
2024-04-22T07:07:45.813Z,101655.69
2024-04-22T07:10:16.171Z,101644.09
2024-04-22T07:12:45.337Z,101644.50
2024-04-22T07:15:14.538Z,101637.34
2024-04-22T07:17:45.325Z,101634.72
2024-04-22T07:20:13.393Z,101630.84
2024-04-22T07:22:45.364Z,101638.31
2024-04-22T07:25:12.818Z,101638.38
2024-04-22T07:27:40.231Z,101637.16
2024-04-22T07:30:07.739Z,101623.03
2024-04-22T07:32:35.556Z,101630.97
2024-04-22T07:35:02.938Z,101618.97
2024-04-22T07:37:41.195Z,101614.59
2024-04-22T07:40:20.515Z,101619.13
2024-04-22T07:42:48.929Z,101609.03
2024-04-22T07:45:18.049Z,101617.13
2024-04-22T07:47:46.209Z,101613.03
2024-04-22T07:50:13.668Z,101616.66
2024-04-22T07:52:41.817Z,101613.09
2024-04-22T07:55:12.078Z,101603.97
2024-04-22T07:57:43.197Z,101606.50
2024-04-22T08:00:13.125Z,101610.34
2024-04-22T08:02:41.352Z,101617.44
2024-04-22T08:05:09.435Z,101609.69
2024-04-22T08:07:42.580Z,101616.03
2024-04-22T08:10:20.731Z,101610.75
2024-04-22T08:12:47.999Z,101614.53
2024-04-22T08:15:16.155Z,101606.44
2024-04-22T08:17:43.720Z,101610.03
2024-04-22T08:20:12.126Z,101606.66
2024-04-22T08:22:39.378Z,101611.28
2024-04-22T08:25:06.828Z,101611.84
2024-04-22T08:27:34.669Z,101611.00
2024-04-22T08:30:03.621Z,101603.00
2024-04-22T08:32:31.537Z,101599.53
2024-04-22T08:34:59.182Z,101600.09
2024-04-22T08:37:26.196Z,101599.72
2024-04-22T08:39:53.735Z,101602.34
2024-04-22T08:42:25.283Z,101594.16
2024-04-22T08:44:54.574Z,101601.41
2024-04-22T08:47:22.601Z,101592.16
2024-04-22T08:49:50.849Z,101600.47
2024-04-22T08:52:30.035Z,101596.06
2024-04-22T08:55:00.291Z,101600.69
2024-04-22T08:57:27.166Z,101596.72
2024-04-22T08:59:54.609Z,101598.13
2024-04-22T09:02:22.671Z,101597.41
2024-04-22T09:04:54.226Z,101592.56
2024-04-22T09:08:19.917Z,101597.56
2024-04-22T09:11:39.615Z,101600.00
2024-04-22T09:14:03.273Z,101591.63
2024-04-22T09:16:30.523Z,101585.03
2024-04-22T09:19:04.169Z,101584.41
2024-04-22T09:21:37.468Z,101587.72
2024-04-22T09:24:08.407Z,101582.84
2024-04-22T09:26:36.720Z,101594.97
2024-04-22T09:29:05.601Z,101584.03
2024-04-22T09:31:39.112Z,101582.75
2024-04-22T09:34:19.799Z,101587.28
2024-04-22T09:36:48.625Z,101580.50
2024-04-22T09:39:18.842Z,101588.25
2024-04-22T09:41:48.657Z,101581.06
2024-04-22T09:44:19.117Z,101582.13
2024-04-22T09:46:52.604Z,101570.38
2024-04-22T09:49:20.722Z,101581.16
2024-04-22T09:51:50.124Z,101579.50
2024-04-22T09:54:23.188Z,101574.59
2024-04-22T09:56:53.564Z,101574.34
2024-04-22T09:59:22.218Z,101577.97
2024-04-22T10:01:49.822Z,101574.66
2024-04-22T10:04:17.229Z,101571.94
2024-04-22T10:06:44.996Z,101560.25
2024-04-22T10:09:18.366Z,101564.16
2024-04-22T10:11:46.134Z,101558.81
2024-04-22T10:14:18.358Z,101555.69
2024-04-22T10:16:58.586Z,101545.16
2024-04-22T10:19:31.146Z,101552.22
2024-04-22T10:22:07.306Z,101544.06
2024-04-22T10:24:49.462Z,101539.34
2024-04-22T10:27:18.600Z,101536.72
2024-04-22T10:29:47.042Z,101535.78
2024-04-22T10:32:14.208Z,101530.38
2024-04-22T10:34:47.760Z,101525.16
2024-04-22T10:37:15.308Z,101514.63
2024-04-22T10:39:44.709Z,101524.72
2024-04-22T10:42:12.561Z,101516.50
2024-04-22T10:44:45.261Z,101528.50
2024-04-22T10:47:13.098Z,101523.88
2024-04-22T10:49:42.271Z,101525.91
2024-04-22T10:52:10.040Z,101524.09
2024-04-22T10:54:36.793Z,101519.41
2024-04-22T10:57:04.538Z,101521.59
2024-04-22T10:59:31.860Z,101521.63
2024-04-22T11:02:00.729Z,101520.03
2024-04-22T11:04:29.484Z,101515.91
2024-04-22T11:06:56.272Z,101519.22
2024-04-22T11:09:26.319Z,101529.59
2024-04-22T11:11:54.573Z,101531.78
2024-04-22T11:14:21.901Z,101541.88
2024-04-22T11:17:00.777Z,101553.84
2024-04-22T11:19:30.970Z,101553.00
2024-04-22T11:22:00.067Z,101549.16
2024-04-22T11:24:27.849Z,101536.13
2024-04-22T11:26:56.043Z,101545.66
2024-04-22T11:29:29.756Z,101549.75
2024-04-22T11:32:00.270Z,101546.06
2024-04-22T11:34:30.977Z,101554.88
2024-04-22T11:36:58.648Z,101572.69
2024-04-22T11:39:35.284Z,101571.34
2024-04-22T11:42:06.335Z,101585.25
2024-04-22T11:44:47.324Z,101584.22
2024-04-22T11:47:16.623Z,101587.75
2024-04-22T11:49:47.008Z,101597.94
2024-04-22T11:52:14.936Z,101586.50
2024-04-22T11:54:42.001Z,101591.31
2024-04-22T11:57:09.045Z,101605.78
2024-04-22T11:59:36.088Z,101602.81
2024-04-22T12:02:03.754Z,101609.66
2024-04-22T12:04:31.478Z,101593.63
2024-04-22T12:06:58.514Z,101585.34
2024-04-22T12:09:25.885Z,101582.34
2024-04-22T12:14:41.323Z,101625.84
2024-04-22T12:17:08.792Z,101645.13
2024-04-22T12:19:36.299Z,101637.91
2024-04-22T12:22:03.342Z,101642.84
2024-04-22T12:24:30.357Z,101647.69
2024-04-22T12:27:01.503Z,101650.94
2024-04-22T12:29:30.536Z,101647.41
2024-04-22T12:32:00.632Z,101656.34
2024-04-22T12:34:31.108Z,101647.22
2024-04-22T12:37:01.532Z,101634.88
2024-04-22T12:39:28.852Z,101648.81
2024-04-22T12:41:56.515Z,101650.03
2024-04-22T12:44:30.527Z,101646.63
2024-04-22T12:47:17.764Z,101653.69
2024-04-22T12:50:07.683Z,101642.94
2024-04-22T12:52:34.653Z,101645.84
2024-04-22T12:55:05.652Z,101645.44
2024-04-22T12:57:36.318Z,101644.31
2024-04-22T13:00:10.098Z,101636.81
2024-04-22T13:02:37.324Z,101634.53
2024-04-22T13:05:05.078Z,101635.06
2024-04-22T13:07:43.757Z,101624.56
2024-04-22T13:10:16.013Z,101617.91
2024-04-22T13:12:43.147Z,101625.09
2024-04-22T13:15:10.087Z,101608.28
2024-04-22T13:17:38.792Z,101600.06
2024-04-22T13:20:06.786Z,101597.53
2024-04-22T13:22:34.471Z,101599.66
2024-04-22T13:25:05.147Z,101590.06
2024-04-22T13:27:35.592Z,101584.09
2024-04-22T13:30:09.515Z,101579.75
2024-04-22T13:32:38.248Z,101576.41
2024-04-22T13:35:06.350Z,101572.69
2024-04-22T13:37:33.485Z,101569.41
2024-04-22T13:40:02.269Z,101561.66
2024-04-22T13:42:32.343Z,101562.44
2024-04-22T13:45:02.882Z,101559.16
2024-04-22T13:47:30.253Z,101559.75
2024-04-22T13:49:57.390Z,101559.31
2024-04-22T13:52:25.661Z,101552.25
2024-04-22T13:54:52.720Z,101556.00
2024-04-22T13:57:19.678Z,101547.63
2024-04-22T13:59:46.827Z,101550.81
2024-04-22T14:02:14.742Z,101547.44
2024-04-22T14:04:45.842Z,101545.16
2024-04-22T14:07:17.315Z,101543.78
2024-04-22T14:09:45.414Z,101540.03
2024-04-22T14:12:12.153Z,101541.72
2024-04-22T14:14:40.739Z,101541.63
2024-04-22T14:17:08.941Z,101536.44
2024-04-22T14:19:36.417Z,101531.53
2024-04-22T14:22:03.908Z,101532.81
2024-04-22T14:24:31.358Z,101517.16
2024-04-22T14:27:02.288Z,101519.34
2024-04-22T14:29:37.814Z,101528.34
2024-04-22T14:32:05.981Z,101531.44
2024-04-22T14:34:45.503Z,101527.25
2024-04-22T14:37:12.612Z,101522.50
2024-04-22T14:39:40.024Z,101516.91
2024-04-22T14:42:08.127Z,101516.75
2024-04-22T14:44:41.163Z,101516.75
2024-04-22T14:47:09.088Z,101510.72
2024-04-22T14:49:36.545Z,101505.69
2024-04-22T14:52:03.890Z,101509.84
2024-04-22T14:54:31.339Z,101509.00
2024-04-22T14:56:58.502Z,101523.34
2024-04-22T14:59:25.497Z,101520.19
2024-04-22T15:01:52.672Z,101508.97
2024-04-22T15:04:19.777Z,101506.06
2024-04-22T15:06:47.982Z,101512.34
2024-04-22T15:09:15.103Z,101512.41
2024-04-22T15:11:42.192Z,101508.97
2024-04-22T15:14:09.064Z,101511.81
2024-04-22T15:16:36.383Z,101511.88
2024-04-22T15:19:03.483Z,101512.56
2024-04-22T15:21:30.344Z,101511.25
2024-04-22T15:23:57.259Z,101510.28
2024-04-22T15:26:24.569Z,101511.63
2024-04-22T15:28:51.716Z,101508.31
2024-04-22T15:31:19.146Z,101510.44
2024-04-22T15:33:47.062Z,101505.41
2024-04-22T15:36:17.785Z,101500.47
2024-04-22T15:38:45.020Z,101494.44
2024-04-22T15:41:12.088Z,101493.06
2024-04-22T15:43:44.001Z,101491.66
2024-04-22T15:46:12.576Z,101491.25
2024-04-22T15:48:39.880Z,101479.91
2024-04-22T15:51:08.185Z,101488.25
2024-04-22T15:53:35.478Z,101474.91
2024-04-22T15:56:03.689Z,101465.78
2024-04-22T15:58:31.310Z,101460.56
2024-04-22T16:00:58.364Z,101457.78
2024-04-22T16:03:29.220Z,101455.50
2024-04-22T16:05:56.538Z,101446.16
2024-04-22T16:08:23.606Z,101444.88
2024-04-22T16:10:51.247Z,101447.59
2024-04-22T16:13:20.246Z,101443.72
2024-04-22T16:15:47.337Z,101451.47
2024-04-22T16:18:14.261Z,101447.47
2024-04-22T16:20:43.292Z,101448.03
2024-04-22T16:23:10.675Z,101439.41
2024-04-22T16:25:37.505Z,101445.88
2024-04-22T16:28:04.936Z,101437.41
2024-04-22T16:30:32.262Z,101443.72
2024-04-22T16:32:59.300Z,101441.97
2024-04-22T16:35:29.212Z,101436.84
2024-04-22T16:37:56.500Z,101438.09
2024-04-22T16:40:23.507Z,101436.22
2024-04-22T16:42:51.096Z,101447.88
2024-04-22T16:45:18.848Z,101447.47
2024-04-22T16:47:45.812Z,101437.41
2024-04-22T16:50:12.613Z,101446.00
2024-04-22T16:52:39.612Z,101449.72
2024-04-22T16:55:07.108Z,101439.09
2024-04-22T16:57:34.780Z,101445.72
2024-04-22T17:00:01.543Z,101443.09
2024-04-22T17:02:28.860Z,101439.94
2024-04-22T17:04:57.596Z,101440.19
2024-04-22T17:07:25.151Z,101443.75
2024-04-22T17:09:52.715Z,101445.28
2024-04-22T17:12:19.877Z,101436.19
2024-04-22T17:14:46.921Z,101444.19
2024-04-22T17:17:14.481Z,101436.59
2024-04-22T17:19:41.639Z,101436.94
2024-04-22T17:22:08.663Z,101436.38
2024-04-22T17:24:36.204Z,101430.00
2024-04-22T17:27:03.166Z,101414.03
2024-04-22T17:29:30.657Z,101407.31
2024-04-22T17:31:57.781Z,101400.81
2024-04-22T17:34:25.412Z,101407.97
2024-04-22T17:36:53.843Z,101416.59
2024-04-22T17:39:20.640Z,101410.19
2024-04-22T17:41:48.417Z,101417.59
2024-04-22T17:44:15.170Z,101417.94
2024-04-22T17:46:42.072Z,101413.50
2024-04-22T17:49:11.651Z,101410.50
2024-04-22T17:51:39.046Z,101410.53
2024-04-22T17:54:06.102Z,101412.25
2024-04-22T17:56:33.640Z,101416.00
2024-04-22T17:59:00.763Z,101408.28
2024-04-22T18:01:27.714Z,101415.56
2024-04-22T18:03:54.967Z,101408.28
2024-04-22T18:06:23.244Z,101416.75
2024-04-22T18:08:50.208Z,101403.78
2024-04-22T18:11:18.480Z,101407.16
2024-04-22T18:13:45.675Z,101413.47
2024-04-22T18:16:12.559Z,101411.59
2024-04-22T18:18:39.333Z,101412.34
2024-04-22T18:21:06.788Z,101409.72
2024-04-22T18:23:33.672Z,101411.72
2024-04-22T18:26:06.363Z,101404.84
2024-04-22T18:28:40.476Z,101407.44
2024-04-22T18:31:07.543Z,101408.03
2024-04-22T18:33:34.532Z,101414.53
2024-04-22T18:36:01.483Z,101416.81
2024-04-22T18:38:29.005Z,101418.69
2024-04-22T18:40:55.928Z,101418.97
2024-04-22T18:43:23.057Z,101410.78
2024-04-22T18:45:50.224Z,101412.19
2024-04-22T18:48:17.174Z,101419.97
2024-04-22T18:50:44.179Z,101409.25
2024-04-22T18:53:12.072Z,101421.47
2024-04-22T18:55:39.733Z,101426.75
2024-04-22T18:58:07.313Z,101421.59
2024-04-22T19:00:35.314Z,101425.34
2024-04-22T19:03:02.726Z,101424.31
2024-04-22T19:05:29.868Z,101431.09
2024-04-22T19:07:57.274Z,101427.91
2024-04-22T19:10:24.307Z,101423.88
2024-04-22T19:12:51.382Z,101428.47
2024-04-22T19:15:18.234Z,101433.25
2024-04-22T19:17:45.368Z,101440.56
2024-04-22T19:20:13.375Z,101435.53
2024-04-22T19:22:40.317Z,101438.69
2024-04-22T19:25:08.933Z,101439.72
2024-04-22T19:27:35.857Z,101435.41
2024-04-22T19:30:03.764Z,101435.09
2024-04-22T19:32:30.678Z,101441.13
2024-04-22T19:34:57.656Z,101440.56
2024-04-22T19:37:24.986Z,101433.81
2024-04-22T19:39:52.124Z,101446.31
2024-04-22T19:42:19.948Z,101440.84
2024-04-22T19:44:56.989Z,101452.03
2024-04-22T19:47:36.783Z,101440.66
2024-04-22T19:50:14.676Z,101440.56
2024-04-22T19:53:08.165Z,101448.03
2024-04-22T19:55:40.228Z,101452.78
2024-04-22T19:58:08.101Z,101449.19
2024-04-22T20:00:37.834Z,101453.94
2024-04-22T20:03:06.154Z,101462.09
2024-04-22T20:05:36.410Z,101455.94
2024-04-22T20:08:03.773Z,101456.09
2024-04-22T20:10:30.893Z,101448.47
2024-04-22T20:12:59.870Z,101452.91
2024-04-22T20:15:40.855Z,101456.66
2024-04-22T20:18:13.887Z,101456.66
2024-04-22T20:20:40.842Z,101456.97
2024-04-22T20:23:09.339Z,101456.97
2024-04-22T20:25:36.400Z,101451.78
2024-04-22T20:28:04.444Z,101450.63
2024-04-22T20:30:31.999Z,101452.88
2024-04-22T20:33:01.151Z,101453.91
2024-04-22T20:35:28.430Z,101448.16
2024-04-22T20:37:56.681Z,101448.75
2024-04-22T20:40:25.025Z,101441.97
2024-04-22T20:42:52.323Z,101454.25
2024-04-22T20:45:20.432Z,101458.13
2024-04-22T20:47:48.697Z,101442.00
2024-04-22T20:50:15.745Z,101450.06
2024-04-22T20:52:47.372Z,101450.91
2024-04-22T20:55:15.443Z,101447.47
2024-04-22T20:57:42.313Z,101456.06
2024-04-22T21:00:09.435Z,101456.50
2024-04-22T21:02:37.588Z,101457.19
2024-04-22T21:05:04.742Z,101447.84
2024-04-22T21:07:33.772Z,101451.13
2024-04-22T21:10:01.220Z,101470.41
2024-04-22T21:12:30.100Z,101457.78
2024-04-22T21:15:00.214Z,101458.59
2024-04-22T21:17:27.573Z,101452.00
2024-04-22T21:19:57.142Z,101451.34
2024-04-22T21:22:24.166Z,101448.16
2024-04-22T21:24:54.185Z,101453.88
2024-04-22T21:27:21.166Z,101452.44
2024-04-22T21:29:49.249Z,101452.28
2024-04-22T21:32:17.776Z,101449.34
2024-04-22T21:34:45.423Z,101449.50
2024-04-22T21:37:12.264Z,101445.69
2024-04-22T21:39:40.174Z,101444.34
2024-04-22T21:42:07.013Z,101441.47
2024-04-22T21:44:33.895Z,101445.16
2024-04-22T21:47:01.365Z,101442.81
2024-04-22T21:49:30.191Z,101442.19
2024-04-22T21:51:57.717Z,101438.91
2024-04-22T21:54:24.794Z,101446.28
2024-04-22T21:56:52.161Z,101443.50
2024-04-22T21:59:56.922Z,101440.84
2024-04-22T22:03:02.470Z,101442.81
2024-04-22T22:06:08.426Z,101450.34
2024-04-22T22:08:38.371Z,101446.50
2024-04-22T22:11:06.557Z,101449.38
2024-04-22T22:13:34.088Z,101443.84
2024-04-22T22:16:02.003Z,101448.16
2024-04-22T22:18:35.882Z,101436.63
2024-04-22T22:21:02.965Z,101438.25
2024-04-22T22:23:30.911Z,101434.28
2024-04-22T22:26:01.808Z,101451.34
2024-04-22T22:28:29.260Z,101449.38
2024-04-22T22:30:58.951Z,101451.94
2024-04-22T22:33:25.898Z,101446.66
2024-04-22T22:35:55.152Z,101445.03
2024-04-22T22:38:22.320Z,101448.25
2024-04-22T22:40:49.806Z,101442.09
2024-04-22T22:43:17.809Z,101439.66
2024-04-22T22:45:45.655Z,101436.34
2024-04-22T22:48:13.780Z,101439.66
2024-04-22T22:50:41.237Z,101437.56
2024-04-22T22:53:12.609Z,101439.53
2024-04-22T22:55:39.886Z,101440.66
2024-04-22T22:58:06.787Z,101431.19
2024-04-22T23:00:34.292Z,101439.63
2024-04-22T23:03:01.854Z,101440.53
2024-04-22T23:05:28.850Z,101443.00
2024-04-22T23:07:57.242Z,101444.13
2024-04-22T23:10:24.426Z,101441.59
2024-04-22T23:12:53.821Z,101435.63
2024-04-22T23:15:20.729Z,101439.81
2024-04-22T23:17:48.326Z,101436.91
2024-04-22T23:20:20.584Z,101436.31
2024-04-22T23:22:49.126Z,101438.13
2024-04-22T23:25:17.701Z,101433.97
2024-04-22T23:27:45.051Z,101432.56
2024-04-22T23:30:13.500Z,101436.41
2024-04-22T23:32:41.594Z,101427.13
2024-04-22T23:35:09.714Z,101420.94
2024-04-22T23:37:37.289Z,101434.38
2024-04-22T23:40:05.330Z,101429.00
2024-04-22T23:42:36.867Z,101427.31
2024-04-22T23:45:03.972Z,101422.28
2024-04-22T23:47:32.373Z,101416.22
2024-04-22T23:49:59.358Z,101409.59
2024-04-22T23:52:29.165Z,101415.41
2024-04-22T23:54:56.102Z,101409.41
2024-04-22T23:57:23.490Z,101409.75
2024-04-22T23:59:50.402Z,101409.00
